Williston, North Dakota
Current Conditions -  °F | °C
As of 6:41 PM on Monday 22 Dec 2014 (Local Time) from KISN Reporting Station
Overcast Overcast  
Wind Chill: -9°   Ceiling: 900
Heat Index: -3°   Visibility: 8mi
Dew Point: -5°   Wind: 13mph
Humidity: 85%   Direction: 350°N
Pressure: 29.8"   Gusts: NA
Location:  48.15°N, 103.62°W
Report Text: KISN 230041Z AUTO 35011KT 8SM OVC009 M03/M05 A2980 RMK AO2 T10281050
Loading
Personal Weather Stations






























Interactive Weather Map New forecast layout! Learn more

10-Day Weather Forecast

Advertisements
Track Severe Weather on mobile